createdAt,value
2016-12-19T00:03:50.507Z,1025.12
2016-12-19T00:08:46.964Z,1025.06
2016-12-19T00:13:43.420Z,1025.20
2016-12-19T00:18:40.307Z,1025.08
2016-12-19T00:23:36.869Z,1025.19
2016-12-19T00:28:33.503Z,1025.23
2016-12-19T00:33:30.940Z,1025.23
2016-12-19T00:38:27.570Z,1025.23
2016-12-19T00:43:24.108Z,1025.23
2016-12-19T00:48:21.528Z,1025.14
2016-12-19T00:53:17.906Z,1025.12
2016-12-19T00:58:14.562Z,1025.14
2016-12-19T01:03:11.044Z,1025.03
2016-12-19T01:08:07.589Z,1024.93
2016-12-19T01:13:04.050Z,1024.99
2016-12-19T01:18:01.470Z,1024.97
2016-12-19T01:22:58.046Z,1024.89
2016-12-19T01:27:54.928Z,1024.84
2016-12-19T01:32:51.511Z,1024.91
2016-12-19T01:37:48.092Z,1024.99
2016-12-19T01:42:44.570Z,1024.93
2016-12-19T01:47:41.571Z,1024.84
2016-12-19T01:52:38.050Z,1024.87
2016-12-19T01:57:34.510Z,1024.91
2016-12-19T02:02:30.983Z,1024.82
2016-12-19T02:07:27.486Z,1024.93
2016-12-19T02:12:24.051Z,1024.80
2016-12-19T02:17:20.530Z,1024.73
2016-12-19T02:22:16.553Z,1024.70
2016-12-19T02:27:13.531Z,1024.67
2016-12-19T02:32:10.234Z,1024.69
2016-12-19T02:37:07.650Z,1024.67
2016-12-19T02:42:03.684Z,1024.66
2016-12-19T02:47:00.442Z,1024.63
2016-12-19T02:51:57.636Z,1024.64
2016-12-19T02:56:54.155Z,1024.58
2016-12-19T03:01:50.772Z,1024.64
2016-12-19T03:06:47.214Z,1024.60
2016-12-19T03:11:43.890Z,1024.64
2016-12-19T03:16:40.237Z,1024.66
2016-12-19T03:21:36.673Z,1024.59
2016-12-19T03:26:33.115Z,1024.51
2016-12-19T03:31:29.655Z,1024.52
2016-12-19T03:36:26.772Z,1024.50
2016-12-19T03:41:23.915Z,1024.43
2016-12-19T03:46:20.347Z,1024.29
2016-12-19T03:51:16.668Z,1024.29
2016-12-19T03:56:13.134Z,1024.17
2016-12-19T04:01:10.494Z,1024.25
2016-12-19T04:06:06.877Z,1024.19
2016-12-19T04:11:03.455Z,1024.15
2016-12-19T04:16:00.036Z,1024.09
2016-12-19T04:20:56.171Z,1024.09
2016-12-19T04:25:52.735Z,1024.08
2016-12-19T04:30:49.397Z,1024.03
2016-12-19T04:35:46.077Z,1024.13
2016-12-19T04:40:43.655Z,1024.24
2016-12-19T04:45:40.455Z,1024.21
2016-12-19T04:50:36.612Z,1024.15
2016-12-19T04:55:32.650Z,1023.98
2016-12-19T05:00:29.470Z,1023.93
2016-12-19T05:05:25.777Z,1023.87
2016-12-19T05:10:22.299Z,1023.81
2016-12-19T05:15:18.727Z,1023.73
2016-12-19T05:20:15.449Z,1023.69
2016-12-19T05:25:12.123Z,1023.60
2016-12-19T05:30:08.728Z,1023.64
2016-12-19T05:35:05.738Z,1023.73
2016-12-19T05:40:02.493Z,1023.86
2016-12-19T05:44:58.922Z,1023.75
2016-12-19T05:49:55.899Z,1023.64
2016-12-19T05:54:52.191Z,1023.63
2016-12-19T05:59:48.777Z,1023.64
2016-12-19T06:04:45.276Z,1023.62
2016-12-19T06:09:41.785Z,1023.68
2016-12-19T06:14:38.352Z,1023.58
2016-12-19T06:19:34.818Z,1023.52
2016-12-19T06:24:31.371Z,1023.61
2016-12-19T06:29:27.993Z,1023.62
2016-12-19T06:34:24.276Z,1023.53
2016-12-19T06:39:20.712Z,1023.56
2016-12-19T06:44:17.016Z,1023.56
2016-12-19T06:49:13.614Z,1023.63
2016-12-19T06:54:10.091Z,1023.51
2016-12-19T06:59:06.605Z,1023.50
2016-12-19T07:04:03.162Z,1023.41
2016-12-19T07:08:59.357Z,1023.31
2016-12-19T07:13:55.640Z,1023.50
2016-12-19T07:18:52.024Z,1023.46
2016-12-19T07:23:48.645Z,1023.39
2016-12-19T07:28:45.010Z,1023.44
2016-12-19T07:33:41.474Z,1023.34
2016-12-19T07:38:38.073Z,1023.41
2016-12-19T07:43:34.498Z,1023.38
2016-12-19T07:48:30.772Z,1023.47
2016-12-19T07:53:27.360Z,1023.45
2016-12-19T07:58:23.827Z,1023.51
2016-12-19T08:03:20.276Z,1023.60
2016-12-19T08:08:16.697Z,1023.44
2016-12-19T08:13:13.535Z,1023.38
2016-12-19T08:18:09.787Z,1023.48
2016-12-19T08:23:07.403Z,1023.48
2016-12-19T08:28:03.934Z,1023.53
2016-12-19T08:33:00.381Z,1023.48
2016-12-19T08:37:56.787Z,1023.54
2016-12-19T08:42:53.542Z,1023.43
2016-12-19T08:47:49.990Z,1023.42
2016-12-19T08:52:46.579Z,1023.51
2016-12-19T08:57:43.089Z,1023.52
2016-12-19T09:02:41.144Z,1023.54
2016-12-19T09:07:38.751Z,1023.64
2016-12-19T09:12:35.105Z,1023.64
2016-12-19T09:17:31.921Z,1023.65
2016-12-19T09:22:28.890Z,1023.54
2016-12-19T09:27:25.441Z,1023.64
2016-12-19T09:32:21.908Z,1023.69
2016-12-19T09:37:18.459Z,1023.64
2016-12-19T09:42:16.053Z,1023.70
2016-12-19T09:47:12.460Z,1023.66
2016-12-19T09:52:08.817Z,1023.71
2016-12-19T09:57:05.458Z,1023.74
2016-12-19T10:02:01.847Z,1023.75
2016-12-19T10:06:58.135Z,1023.77
2016-12-19T10:11:54.717Z,1023.79
2016-12-19T10:16:51.415Z,1023.78
2016-12-19T10:21:48.238Z,1023.68
2016-12-19T10:26:44.541Z,1023.71
2016-12-19T10:31:41.658Z,1023.79
2016-12-19T10:36:37.794Z,1023.62
2016-12-19T10:41:34.389Z,1023.53
2016-12-19T10:46:30.950Z,1023.55
2016-12-19T10:51:27.848Z,1023.45
2016-12-19T10:56:24.715Z,1023.38
2016-12-19T11:01:21.333Z,1023.26
2016-12-19T11:06:18.079Z,1023.21
2016-12-19T11:11:14.549Z,1023.12
2016-12-19T11:16:11.602Z,1023.12
2016-12-19T11:21:08.216Z,1023.07
2016-12-19T11:26:04.637Z,1022.99
2016-12-19T11:31:02.025Z,1023.05
2016-12-19T11:35:58.803Z,1022.92
2016-12-19T11:40:55.030Z,1022.88
2016-12-19T11:45:51.316Z,1022.79
2016-12-19T11:50:48.416Z,1022.78
2016-12-19T11:55:44.704Z,1022.64
2016-12-19T12:00:41.280Z,1022.53
2016-12-19T12:05:37.744Z,1022.46
2016-12-19T12:10:34.341Z,1022.34
2016-12-19T12:15:31.004Z,1022.23
2016-12-19T12:20:27.876Z,1022.13
2016-12-19T12:25:24.354Z,1022.16
2016-12-19T12:30:21.000Z,1022.06
2016-12-19T12:35:17.595Z,1022.04
2016-12-19T12:40:14.076Z,1022.01
2016-12-19T12:45:11.126Z,1022.08
2016-12-19T12:50:07.542Z,1022.01
2016-12-19T12:55:03.979Z,1022.04
2016-12-19T13:00:01.485Z,1022.03
2016-12-19T13:04:57.907Z,1021.92
2016-12-19T13:09:54.340Z,1021.96
2016-12-19T13:14:50.875Z,1021.92
2016-12-19T13:19:47.117Z,1021.81
2016-12-19T13:24:43.503Z,1021.80
2016-12-19T13:29:40.014Z,1021.80
2016-12-19T13:34:36.143Z,1021.64
2016-12-19T13:39:32.930Z,1021.70
2016-12-19T13:44:29.280Z,1021.83
2016-12-19T13:49:26.479Z,1021.72
2016-12-19T13:54:22.811Z,1021.71
2016-12-19T13:59:19.540Z,1021.75
2016-12-19T14:04:16.318Z,1021.73
2016-12-19T14:09:12.985Z,1021.79
2016-12-19T14:14:09.529Z,1021.77
2016-12-19T14:19:05.852Z,1021.79
2016-12-19T14:24:02.145Z,1021.65
2016-12-19T14:28:58.847Z,1021.68
2016-12-19T14:33:55.560Z,1021.55
2016-12-19T14:38:51.749Z,1021.59
2016-12-19T14:43:47.811Z,1021.57
2016-12-19T14:48:44.176Z,1021.55
2016-12-19T14:53:40.323Z,1021.46
2016-12-19T14:58:36.586Z,1021.49
2016-12-19T15:03:32.938Z,1021.55
2016-12-19T15:08:29.241Z,1021.45
2016-12-19T15:13:25.300Z,1021.59
2016-12-19T15:18:21.967Z,1021.49
2016-12-19T15:23:19.499Z,1021.50
2016-12-19T15:28:15.749Z,1021.45
2016-12-19T15:33:12.993Z,1021.57
2016-12-19T15:38:09.419Z,1021.49
2016-12-19T15:43:05.649Z,1021.54
2016-12-19T15:48:02.015Z,1021.44
2016-12-19T15:52:58.728Z,1021.35
2016-12-19T15:57:55.217Z,1021.43
2016-12-19T16:02:51.730Z,1021.31
2016-12-19T16:07:48.146Z,1021.37
2016-12-19T16:12:45.750Z,1021.38
2016-12-19T16:17:42.226Z,1021.42
2016-12-19T16:22:38.557Z,1021.43
2016-12-19T16:27:36.555Z,1021.42
2016-12-19T16:32:32.710Z,1021.36
2016-12-19T16:37:28.828Z,1021.27
2016-12-19T16:42:25.081Z,1021.31
2016-12-19T16:47:22.000Z,1021.23
2016-12-19T16:52:18.592Z,1021.18
2016-12-19T16:57:15.127Z,1021.28
2016-12-19T17:02:11.463Z,1021.31
2016-12-19T17:07:07.854Z,1021.44
2016-12-19T17:12:04.272Z,1021.34
2016-12-19T17:17:00.546Z,1021.28
2016-12-19T17:21:56.872Z,1021.32
2016-12-19T17:26:54.179Z,1021.31
2016-12-19T17:31:50.489Z,1021.39
2016-12-19T17:36:46.940Z,1021.33
2016-12-19T17:41:44.218Z,1021.33
2016-12-19T17:46:40.647Z,1021.23
2016-12-19T17:51:37.215Z,1021.26
2016-12-19T17:56:33.690Z,1021.17
2016-12-19T18:01:29.830Z,1021.19
2016-12-19T18:06:26.259Z,1021.23
2016-12-19T18:11:23.170Z,1021.21
2016-12-19T18:16:19.393Z,1021.05
2016-12-19T18:21:16.655Z,1021.12
2016-12-19T18:26:13.723Z,1020.95
2016-12-19T18:31:11.553Z,1020.95
2016-12-19T18:36:07.667Z,1021.00
2016-12-19T18:41:03.704Z,1021.00
2016-12-19T18:46:00.088Z,1021.00
2016-12-19T18:50:56.187Z,1020.93
2016-12-19T18:55:52.446Z,1020.82
2016-12-19T19:00:48.868Z,1020.72
2016-12-19T19:05:45.536Z,1020.72
2016-12-19T19:10:41.797Z,1020.83
2016-12-19T19:15:38.189Z,1020.90
2016-12-19T19:20:34.520Z,1020.97
2016-12-19T19:25:32.130Z,1021.08
2016-12-19T19:30:28.227Z,1021.17
2016-12-19T19:35:24.334Z,1021.09
2016-12-19T19:40:20.335Z,1021.05
2016-12-19T19:45:16.709Z,1021.09
2016-12-19T19:50:13.568Z,1021.18
2016-12-19T19:55:09.926Z,1021.15
2016-12-19T20:00:06.939Z,1021.18
2016-12-19T20:05:03.101Z,1021.32
2016-12-19T20:09:59.489Z,1021.16
2016-12-19T20:14:56.295Z,1021.23
2016-12-19T20:19:52.742Z,1021.13
2016-12-19T20:24:48.983Z,1021.12
2016-12-19T20:29:47.391Z,1020.85
2016-12-19T20:34:43.891Z,1021.03
2016-12-19T20:39:40.490Z,1021.06
2016-12-19T20:44:36.776Z,1021.07
2016-12-19T20:49:35.761Z,1021.02
2016-12-19T20:54:32.555Z,1021.09
2016-12-19T20:59:28.673Z,1021.05
2016-12-19T21:04:24.950Z,1021.07
2016-12-19T21:09:21.699Z,1021.16
2016-12-19T21:14:20.514Z,1021.15
2016-12-19T21:19:16.950Z,1021.14
2016-12-19T21:24:16.102Z,1021.27
2016-12-19T21:29:11.676Z,1021.19
2016-12-19T21:34:08.357Z,1021.30
2016-12-19T21:39:04.418Z,1021.15
2016-12-19T21:44:01.078Z,1021.20
2016-12-19T21:48:57.271Z,1021.33
2016-12-19T21:53:53.747Z,1021.18
2016-12-19T21:58:50.171Z,1021.23
2016-12-19T22:03:47.155Z,1021.19
2016-12-19T22:08:43.303Z,1021.16
2016-12-19T22:13:39.480Z,1021.07
2016-12-19T22:18:35.741Z,1021.09
2016-12-19T22:23:32.015Z,1021.06
2016-12-19T22:28:28.731Z,1021.03
2016-12-19T22:33:25.162Z,1021.01
2016-12-19T22:38:21.662Z,1020.96
2016-12-19T22:43:17.989Z,1020.91
2016-12-19T22:48:15.511Z,1020.88
2016-12-19T22:53:11.460Z,1020.89
2016-12-19T22:58:07.800Z,1020.89
2016-12-19T23:03:04.006Z,1020.89
2016-12-19T23:08:00.410Z,1020.95
2016-12-19T23:12:57.611Z,1020.85
2016-12-19T23:17:53.883Z,1020.82
2016-12-19T23:22:50.256Z,1020.78
2016-12-19T23:27:46.596Z,1020.80
2016-12-19T23:32:43.826Z,1020.72
2016-12-19T23:37:40.076Z,1020.55
2016-12-19T23:42:36.274Z,1020.60
2016-12-19T23:47:32.599Z,1020.60
2016-12-19T23:52:29.038Z,1020.51
2016-12-19T23:57:25.264Z,1020.43
